Time;durP1;ratioP1;P1;durP2;ratioP2;P2;SDS_P1;SDS_P2;PMS_P1;PMS_P2;Temp;Humidity;BMP_temperature;BMP_pressure;BME280_temperature;BME280_humidity;BME280_pressure;Samples;Min_cycle;Max_cycle;Signal;HPM_P1;HPM_P2
2022/03/03 00:00:38;;;;;;;39.78;36.40;;;1.20;96.90;;;;;;5095203;28;20225;-71
2022/03/03 00:03:05;;;;;;;39.60;35.80;;;1.10;92.80;;;;;;5095668;28;20226;-71
2022/03/03 00:05:32;;;;;;;40.45;36.72;;;1.10;88.60;;;;;;5095511;28;20253;-71
2022/03/03 00:07:59;;;;;;;37.90;34.53;;;1.20;88.20;;;;;;5095414;28;20297;-71
2022/03/03 00:10:28;;;;;;;40.15;36.65;;;1.20;86.10;;;;;;5094921;28;20575;-72
2022/03/03 00:12:54;;;;;;;40.03;36.55;;;1.10;88.00;;;;;;5095572;28;20218;-71
2022/03/03 00:15:22;;;;;;;38.80;35.55;;;1.10;88.20;;;;;;5095358;28;20197;-71
2022/03/03 00:17:48;;;;;;;39.97;36.25;;;1.10;87.40;;;;;;5095304;28;20198;-71
2022/03/03 00:20:15;;;;;;;40.25;36.75;;;1.10;85.10;;;;;;5094918;28;20289;-71
2022/03/03 00:22:43;;;;;;;39.28;35.95;;;1.00;84.30;;;;;;5095219;28;20701;-71
2022/03/03 00:25:10;;;;;;;40.25;36.25;;;1.00;84.30;;;;;;5095236;28;20294;-71
2022/03/03 00:27:38;;;;;;;39.75;36.13;;;0.90;83.20;;;;;;5095139;28;20202;-71
2022/03/03 00:30:06;;;;;;;39.03;35.83;;;0.90;83.20;;;;;;5094933;28;20681;-71
2022/03/03 00:32:40;;;;;;;38.78;35.67;;;0.90;83.00;;;;;;5094978;28;20302;-71
2022/03/03 00:35:08;;;;;;;39.80;36.33;;;0.90;82.70;;;;;;5094971;28;20206;-71
2022/03/03 00:37:34;;;;;;;39.05;35.95;;;1.00;82.10;;;;;;5094670;28;20687;-71
2022/03/03 00:40:01;;;;;;;39.92;36.38;;;0.90;82.10;;;;;;5094702;28;20192;-71
2022/03/03 00:42:28;;;;;;;38.03;34.90;;;0.80;82.30;;;;;;5094495;28;20270;-72
2022/03/03 00:44:57;;;;;;;40.63;37.33;;;0.80;82.40;;;;;;5094741;28;20209;-71
2022/03/03 00:47:24;;;;;;;38.88;35.67;;;0.80;82.50;;;;;;5094803;28;20284;-72
2022/03/03 00:49:50;;;;;;;37.20;34.00;;;0.80;82.40;;;;;;5094787;28;20305;-71
2022/03/03 00:52:17;;;;;;;38.40;34.90;;;0.70;82.60;;;;;;5094690;28;20221;-71
2022/03/03 00:54:44;;;;;;;37.60;34.13;;;0.70;82.60;;;;;;5094607;28;20232;-71
2022/03/03 00:57:11;;;;;;;39.22;36.03;;;0.60;83.10;;;;;;5094586;28;20236;-72
2022/03/03 00:59:38;;;;;;;39.58;35.92;;;0.60;83.20;;;;;;5094271;28;20364;-72
2022/03/03 01:02:06;;;;;;;39.63;36.17;;;0.60;83.60;;;;;;5094363;28;20298;-71
2022/03/03 01:04:33;;;;;;;39.65;36.25;;;0.70;83.40;;;;;;5094413;28;20198;-71
2022/03/03 01:07:03;;;;;;;40.30;36.70;;;0.60;83.40;;;;;;5094467;28;20283;-71
2022/03/03 01:09:30;;;;;;;39.33;36.10;;;0.60;83.20;;;;;;5094262;28;20289;-71
2022/03/03 01:11:57;;;;;;;38.95;35.53;;;0.60;83.20;;;;;;5094143;28;20209;-71
2022/03/03 01:14:25;;;;;;;38.70;35.22;;;0.60;83.10;;;;;;5094202;28;20288;-71
2022/03/03 01:16:53;;;;;;;39.85;36.63;;;0.50;83.40;;;;;;5094170;28;20652;-72
2022/03/03 01:19:21;;;;;;;37.83;34.58;;;0.40;83.50;;;;;;5093976;28;20238;-71
2022/03/03 01:21:48;;;;;;;39.80;36.45;;;0.50;83.20;;;;;;5093300;28;20221;-71
2022/03/03 01:24:15;;;;;;;38.70;35.47;;;0.50;83.00;;;;;;5094254;28;20209;-71
2022/03/03 01:26:42;;;;;;;38.63;35.10;;;0.40;83.50;;;;;;5093991;28;20201;-71
2022/03/03 01:29:09;;;;;;;39.20;35.78;;;0.40;85.40;;;;;;5093703;28;20742;-72
2022/03/03 01:31:36;;;;;;;38.72;35.15;;;0.30;84.50;;;;;;5093851;28;20714;-71
2022/03/03 01:34:03;;;;;;;39.65;36.22;;;0.30;84.30;;;;;;5093801;28;20272;-72
2022/03/03 01:36:31;;;;;;;37.88;34.80;;;0.40;84.10;;;;;;5093676;28;20197;-72
2022/03/03 01:38:58;;;;;;;38.17;34.97;;;0.50;83.50;;;;;;5093677;28;20285;-71
2022/03/03 01:41:25;;;;;;;38.72;35.22;;;0.60;83.00;;;;;;5093328;28;20222;-72
2022/03/03 01:43:52;;;;;;;38.22;34.95;;;0.70;82.50;;;;;;5093620;28;20197;-71
2022/03/03 01:46:19;;;;;;;40.25;36.60;;;0.60;82.40;;;;;;5093623;28;20228;-72
2022/03/03 01:48:46;;;;;;;37.95;34.42;;;0.60;82.70;;;;;;5093440;28;20292;-71
2022/03/03 01:51:13;;;;;;;62.03;38.03;;;0.50;82.70;;;;;;5093289;28;20213;-72
2022/03/03 01:53:42;;;;;;;38.80;35.40;;;0.40;83.10;;;;;;5093599;28;20251;-71
2022/03/03 01:56:09;;;;;;;39.72;36.03;;;0.40;86.40;;;;;;5093466;28;20275;-72
2022/03/03 01:58:38;;;;;;;39.40;36.03;;;0.30;85.50;;;;;;5093329;28;20197;-71
2022/03/03 02:01:05;;;;;;;40.78;37.28;;;0.20;85.30;;;;;;5092969;28;20703;-72
2022/03/03 02:03:32;;;;;;;37.33;33.90;;;0.20;84.90;;;;;;5093375;28;20681;-71
2022/03/03 02:06:00;;;;;;;39.80;36.45;;;0.20;84.80;;;;;;5093152;28;20299;-72
2022/03/03 02:08:28;;;;;;;39.47;36.17;;;0.30;85.30;;;;;;5093170;28;20214;-71
2022/03/03 02:10:56;;;;;;;38.65;35.35;;;0.30;86.20;;;;;;5092993;28;20202;-71
2022/03/03 02:13:23;;;;;;;38.85;35.50;;;0.30;85.80;;;;;;5093111;28;20284;-71
2022/03/03 02:15:51;;;;;;;38.38;35.10;;;0.30;84.90;;;;;;5093064;28;20300;-71
2022/03/03 02:18:18;;;;;;;39.25;35.72;;;0.30;84.50;;;;;;5093140;28;20203;-72
2022/03/03 02:20:47;;;;;;;39.42;36.05;;;0.40;83.50;;;;;;5092681;28;20566;-71
2022/03/03 02:23:14;;;;;;;38.50;34.95;;;0.10;83.70;;;;;;5093011;28;20312;-71
2022/03/03 02:25:42;;;;;;;40.50;36.95;;;0.10;84.10;;;;;;5092967;28;20195;-70
2022/03/03 02:28:09;;;;;;;39.53;36.13;;;0.20;84.00;;;;;;5092989;28;20239;-70
2022/03/03 02:30:36;;;;;;;40.92;35.97;;;0.20;83.60;;;;;;5092647;28;20204;-71
2022/03/03 02:33:03;;;;;;;39.65;36.30;;;0.20;83.70;;;;;;5092585;28;20233;-70
2022/03/03 02:35:30;;;;;;;38.97;35.35;;;0.10;84.40;;;;;;5092669;28;20201;-71
2022/03/03 02:37:58;;;;;;;38.78;35.58;;;0.10;84.30;;;;;;5092618;28;20201;-71
2022/03/03 02:40:28;;;;;;;39.75;36.00;;;0.10;84.20;;;;;;5092482;28;20201;-71
2022/03/03 02:42:56;;;;;;;40.95;37.17;;;0.10;84.00;;;;;;5092677;28;20218;-71
2022/03/03 02:45:24;;;;;;;37.90;34.70;;;0.10;84.10;;;;;;5092730;28;20212;-71
2022/03/03 02:47:52;;;;;;;38.20;34.85;;;0.00;84.00;;;;;;5092641;28;20289;-71
2022/03/03 02:50:21;;;;;;;41.50;37.88;;;0.00;84.40;;;;;;5092479;28;20660;-70
2022/03/03 02:52:48;;;;;;;39.92;36.63;;;0.10;84.00;;;;;;5092560;28;20210;-71
2022/03/03 02:55:17;;;;;;;38.83;35.90;;;0.00;83.80;;;;;;5092464;28;20727;-71
2022/03/03 02:57:56;;;;;;;42.97;39.28;;;0.00;84.20;;;;;;5092515;28;20223;-71
2022/03/03 03:00:25;;;;;;;39.30;36.00;;;-0.10;84.50;;;;;;5092388;28;20204;-71
2022/03/03 03:02:51;;;;;;;37.92;34.80;;;-0.20;84.80;;;;;;5092557;28;20278;-71
2022/03/03 03:05:18;;;;;;;39.95;36.17;;;-0.10;84.60;;;;;;5092499;28;20200;-71
2022/03/03 03:07:45;;;;;;;40.05;36.33;;;0.00;84.30;;;;;;5092430;28;20236;-71
2022/03/03 03:10:13;;;;;;;41.65;37.85;;;-0.10;84.60;;;;;;5092315;28;20193;-71
2022/03/03 03:12:41;;;;;;;40.03;36.72;;;-0.10;84.70;;;;;;5092427;28;20305;-71
2022/03/03 03:15:09;;;;;;;41.05;37.58;;;0.00;84.30;;;;;;5092346;28;20205;-71
2022/03/03 03:17:36;;;;;;;39.28;35.78;;;-0.10;84.20;;;;;;5092845;28;20240;-71
2022/03/03 03:20:06;;;;;;;41.42;37.92;;;-0.10;84.20;;;;;;5092162;28;20193;-71
2022/03/03 03:22:33;;;;;;;39.22;36.03;;;0.00;83.80;;;;;;5092251;28;20694;-71
2022/03/03 03:25:00;;;;;;;41.67;37.85;;;-0.10;83.60;;;;;;5092422;28;20294;-71
2022/03/03 03:27:27;;;;;;;42.80;39.03;;;-0.20;84.10;;;;;;5092202;28;20196;-71
2022/03/03 03:29:56;;;;;;;42.50;39.03;;;-0.20;84.60;;;;;;5092372;28;20650;-71
2022/03/03 03:32:22;;;;;;;41.70;37.85;;;-0.30;87.50;;;;;;5092200;28;20305;-71
2022/03/03 03:34:49;;;;;;;41.53;37.97;;;-0.30;86.40;;;;;;5092293;28;20289;-71
2022/03/03 03:37:16;;;;;;;40.45;36.95;;;-0.30;86.00;;;;;;5091812;28;20206;-72
2022/03/03 03:39:44;;;;;;;42.15;38.35;;;-0.40;85.70;;;;;;5091859;28;20563;-71
2022/03/03 03:42:11;;;;;;;38.28;35.08;;;-0.40;85.40;;;;;;5091838;28;20217;-71
2022/03/03 03:44:38;;;;;;;40.92;37.38;;;-0.40;85.30;;;;;;5092154;28;20618;-71
2022/03/03 03:47:07;;;;;;;42.05;38.40;;;-0.30;85.10;;;;;;5095461;28;20275;-71
2022/03/03 03:49:34;;;;;;;39.80;36.30;;;-0.20;84.80;;;;;;5095706;28;20193;-71
2022/03/03 03:52:01;;;;;;;40.72;37.17;;;-0.20;84.40;;;;;;5096055;28;20303;-71
2022/03/03 03:54:28;;;;;;;42.10;38.63;;;-0.20;84.20;;;;;;5095666;28;20196;-71
2022/03/03 03:56:55;;;;;;;40.03;36.63;;;-0.30;84.40;;;;;;5095727;28;20236;-71
2022/03/03 03:59:22;;;;;;;40.78;37.17;;;-0.40;84.90;;;;;;5095391;28;20295;-71
2022/03/03 04:01:49;;;;;;;39.38;36.08;;;-0.50;85.10;;;;;;5095686;28;20228;-71
2022/03/03 04:04:18;;;;;;;40.28;36.72;;;-0.50;85.10;;;;;;5095655;28;20287;-71
2022/03/03 04:06:45;;;;;;;41.63;38.00;;;-0.50;85.00;;;;;;5095634;28;20236;-71
2022/03/03 04:09:12;;;;;;;43.28;39.47;;;-0.50;85.10;;;;;;5095328;28;20216;-70
2022/03/03 04:11:38;;;;;;;43.92;39.80;;;-0.50;85.20;;;;;;5095490;28;20304;-71
2022/03/03 04:14:05;;;;;;;42.17;38.67;;;-0.50;85.30;;;;;;5095248;28;20681;-71
2022/03/03 04:16:32;;;;;;;43.38;39.58;;;-0.60;85.30;;;;;;5095375;28;20289;-71
2022/03/03 04:19:00;;;;;;;41.00;37.38;;;-0.60;85.40;;;;;;5095413;28;20289;-71
2022/03/03 04:21:31;;;;;;;41.95;38.03;;;-0.60;85.60;;;;;;5095043;28;20221;-71
2022/03/03 04:23:58;;;;;;;42.63;38.95;;;-0.60;85.60;;;;;;5095178;28;20221;-71
2022/03/03 04:26:25;;;;;;;43.33;39.58;;;-0.60;87.70;;;;;;5095144;28;20223;-70
2022/03/03 04:28:51;;;;;;;43.08;39.30;;;-0.60;86.70;;;;;;5095175;28;20193;-71
2022/03/03 04:31:18;;;;;;;43.58;39.97;;;-0.60;86.90;;;;;;5094892;28;20219;-71
2022/03/03 04:33:46;;;;;;;43.70;39.83;;;-0.60;86.80;;;;;;5095059;28;20201;-71
2022/03/03 04:36:13;;;;;;;45.00;40.85;;;-0.50;87.30;;;;;;5094864;28;20197;-71
2022/03/03 04:38:42;;;;;;;45.17;41.38;;;-0.60;86.80;;;;;;5095007;28;20216;-71
2022/03/03 04:41:09;;;;;;;42.95;39.15;;;-0.60;86.40;;;;;;5094563;28;20695;-71
2022/03/03 04:43:36;;;;;;;43.03;39.00;;;-0.60;86.20;;;;;;5094702;28;20229;-71
2022/03/03 04:46:03;;;;;;;43.28;39.50;;;-0.50;86.10;;;;;;5094945;28;20205;-70
2022/03/03 04:48:30;;;;;;;42.03;38.25;;;-0.50;85.80;;;;;;5094641;28;20194;-71
2022/03/03 04:50:58;;;;;;;44.85;41.05;;;-0.50;85.80;;;;;;5094644;28;20208;-71
2022/03/03 04:53:25;;;;;;;43.85;40.25;;;-0.50;86.30;;;;;;5094646;28;20203;-70
2022/03/03 04:55:54;;;;;;;43.53;39.67;;;-0.50;87.40;;;;;;5094642;28;20202;-71
2022/03/03 04:58:21;;;;;;;41.63;37.90;;;-0.40;86.50;;;;;;5093416;28;20217;-71
2022/03/03 05:00:48;;;;;;;43.13;39.63;;;-0.40;86.10;;;;;;5093472;28;20237;-71
2022/03/03 05:03:15;;;;;;;43.63;39.50;;;-0.30;85.70;;;;;;5094024;28;20218;-70
2022/03/03 05:05:42;;;;;;;46.83;42.40;;;-0.40;85.50;;;;;;5093597;28;20634;-71
2022/03/03 05:08:09;;;;;;;44.50;40.78;;;-0.30;86.20;;;;;;5093697;28;20193;-70
2022/03/03 05:10:36;;;;;;;45.03;41.00;;;-0.30;88.10;;;;;;5093361;28;20197;-71
2022/03/03 05:13:05;;;;;;;43.78;40.00;;;-0.30;87.00;;;;;;5093612;28;20189;-71
2022/03/03 05:15:32;;;;;;;44.88;41.08;;;-0.30;86.20;;;;;;5093317;28;20287;-71
2022/03/03 05:17:59;;;;;;;45.17;41.17;;;-0.30;86.60;;;;;;5093309;28;20280;-71
2022/03/03 05:20:26;;;;;;;43.63;39.75;;;-0.20;85.90;;;;;;5093153;28;20196;-70
2022/03/03 05:22:53;;;;;;;43.92;39.88;;;-0.10;85.10;;;;;;5093145;28;20236;-70
2022/03/03 05:25:20;;;;;;;46.63;42.63;;;-0.20;84.70;;;;;;5093176;28;20198;-70
2022/03/03 05:27:47;;;;;;;45.35;41.15;;;-0.10;84.80;;;;;;5093058;28;20240;-70
2022/03/03 05:30:15;;;;;;;204.13;58.30;;;-0.10;84.70;;;;;;5092942;28;20659;-71
2022/03/03 05:32:43;;;;;;;45.72;41.58;;;-0.10;87.40;;;;;;5093091;28;20221;-70
2022/03/03 05:35:10;;;;;;;46.47;42.38;;;-0.10;90.30;;;;;;5093057;28;20292;-70
2022/03/03 05:37:37;;;;;;;45.63;41.25;;;-0.10;90.00;;;;;;5093069;28;20201;-71
2022/03/03 05:40:05;;;;;;;44.60;40.58;;;0.00;87.40;;;;;;5092731;28;20204;-70
2022/03/03 05:42:32;;;;;;;44.40;40.30;;;0.00;86.70;;;;;;5092774;28;20227;-70
2022/03/03 05:44:59;;;;;;;44.33;39.72;;;0.00;85.70;;;;;;5092945;28;20218;-70
2022/03/03 05:47:29;;;;;;;44.72;40.63;;;0.00;84.50;;;;;;5092633;28;20250;-70
2022/03/03 05:49:56;;;;;;;44.42;39.97;;;0.00;84.20;;;;;;5092599;28;20197;-71
2022/03/03 05:52:23;;;;;;;45.55;41.63;;;0.00;84.20;;;;;;5092620;28;20220;-71
2022/03/03 05:54:50;;;;;;;45.10;41.22;;;-0.10;85.10;;;;;;5092715;28;20287;-70
2022/03/03 05:57:19;;;;;;;45.50;41.63;;;-0.10;84.90;;;;;;5092526;28;20212;-71
2022/03/03 05:59:49;;;;;;;44.13;39.93;;;-0.10;84.60;;;;;;5052458;28;1145141;-70
2022/03/03 06:02:19;;;;;;;46.08;41.88;;;-0.10;84.20;;;;;;5093607;28;20221;-71
2022/03/03 06:04:49;;;;;;;44.80;40.80;;;-0.10;84.10;;;;;;5093254;28;20244;-71
2022/03/03 06:07:25;;;;;;;44.10;40.17;;;-0.10;83.70;;;;;;5093231;28;20247;-71
2022/03/03 06:09:53;;;;;;;44.88;41.00;;;-0.10;83.60;;;;;;5092740;28;20196;-71
2022/03/03 06:12:27;;;;;;;44.90;40.85;;;-0.10;83.40;;;;;;5093133;28;20221;-71
2022/03/03 06:15:02;;;;;;;44.97;41.45;;;-0.20;83.20;;;;;;5093246;28;20231;-71
2022/03/03 06:17:31;;;;;;;45.00;41.20;;;-0.30;83.50;;;;;;5093350;28;20203;-71
2022/03/03 06:20:01;;;;;;;46.10;42.13;;;-0.30;83.70;;;;;;5092862;28;20200;-71
2022/03/03 06:22:28;;;;;;;44.78;40.80;;;-0.30;83.80;;;;;;5092931;28;20263;-71
2022/03/03 06:24:56;;;;;;;48.28;44.03;;;-0.20;83.80;;;;;;5093026;28;20197;-71
2022/03/03 06:27:22;;;;;;;45.08;41.40;;;-0.20;83.70;;;;;;5092939;28;20201;-71
2022/03/03 06:29:49;;;;;;;49.63;45.03;;;-0.10;84.60;;;;;;5092700;28;20192;-71
2022/03/03 06:32:16;;;;;;;45.90;42.03;;;-0.10;84.60;;;;;;5092818;28;20222;-71
2022/03/03 06:34:43;;;;;;;45.60;41.40;;;0.00;85.10;;;;;;5092933;28;20204;-71
2022/03/03 06:37:11;;;;;;;46.05;41.85;;;0.00;88.20;;;;;;5092605;28;20696;-71
2022/03/03 06:39:38;;;;;;;46.60;42.53;;;0.00;88.10;;;;;;5092734;28;20289;-70
2022/03/03 06:42:07;;;;;;;43.63;39.53;;;0.00;87.60;;;;;;5092710;28;20720;-71
2022/03/03 06:44:34;;;;;;;46.72;42.53;;;0.10;87.90;;;;;;5092626;28;20309;-71
2022/03/03 06:47:01;;;;;;;44.58;40.72;;;0.10;88.90;;;;;;5092678;28;20201;-71
2022/03/03 06:49:28;;;;;;;43.47;39.65;;;0.20;86.70;;;;;;5092360;28;20208;-71
2022/03/03 06:51:58;;;;;;;47.58;43.00;;;0.30;84.40;;;;;;5092674;28;20256;-71
2022/03/03 06:54:26;;;;;;;45.15;41.28;;;0.30;84.10;;;;;;5092492;28;20205;-71
2022/03/03 06:56:54;;;;;;;46.00;41.85;;;0.40;82.80;;;;;;5092632;28;20204;-71
2022/03/03 06:59:24;;;;;;;47.40;43.20;;;0.40;82.80;;;;;;5092450;28;20205;-71
2022/03/03 07:01:52;;;;;;;48.28;43.83;;;0.40;82.80;;;;;;5092359;28;20242;-71
2022/03/03 07:04:20;;;;;;;46.65;42.33;;;0.40;83.50;;;;;;5092289;28;20282;-71
2022/03/03 07:06:47;;;;;;;46.83;42.78;;;0.50;84.90;;;;;;5092610;28;20563;-70
2022/03/03 07:09:15;;;;;;;45.78;41.58;;;0.60;83.70;;;;;;5092302;28;20197;-71
2022/03/03 07:11:44;;;;;;;46.28;41.88;;;0.70;83.30;;;;;;5092477;28;20312;-71
2022/03/03 07:14:12;;;;;;;46.10;42.35;;;0.80;82.10;;;;;;5092523;28;20194;-70
2022/03/03 07:16:42;;;;;;;45.13;41.08;;;0.90;81.00;;;;;;5092242;28;20204;-71
2022/03/03 07:19:29;;;;;;;46.30;41.88;;;1.00;80.60;;;;;;5092206;28;20197;-70
2022/03/03 07:22:15;;;;;;;45.55;41.55;;;1.00;83.70;;;;;;5095759;28;20305;-71
2022/03/03 07:24:45;;;;;;;45.15;41.08;;;1.20;83.50;;;;;;5096229;28;20229;-71
2022/03/03 07:27:18;;;;;;;45.75;41.50;;;1.20;84.50;;;;;;5096197;28;20200;-71
2022/03/03 07:29:48;;;;;;;46.88;42.17;;;1.20;83.30;;;;;;5096100;28;20198;-71
2022/03/03 07:32:19;;;;;;;47.47;43.35;;;1.40;81.70;;;;;;5096292;28;20308;-71
2022/03/03 07:34:51;;;;;;;46.55;42.25;;;1.70;81.20;;;;;;5096160;28;20198;-71
2022/03/03 07:37:24;;;;;;;44.65;40.50;;;1.90;80.20;;;;;;5095845;28;20195;-71
2022/03/03 07:39:54;;;;;;;46.97;41.80;;;2.00;78.70;;;;;;5095927;28;20202;-71
2022/03/03 07:42:22;;;;;;;43.92;40.00;;;2.10;78.50;;;;;;5096016;28;20298;-71
2022/03/03 07:44:49;;;;;;;47.15;42.90;;;2.10;77.40;;;;;;5095817;28;20220;-71
2022/03/03 07:47:16;;;;;;;60.17;47.33;;;2.20;77.00;;;;;;5095951;28;20203;-71
2022/03/03 07:49:46;;;;;;;46.63;42.45;;;2.40;79.60;;;;;;5095727;28;20208;-71
2022/03/03 07:52:13;;;;;;;46.55;42.70;;;2.50;77.70;;;;;;5096015;28;20587;-71
2022/03/03 07:54:40;;;;;;;46.08;41.88;;;2.50;77.00;;;;;;5095918;28;20237;-71
2022/03/03 07:57:13;;;;;;;49.53;43.65;;;2.60;78.50;;;;;;5095926;28;20206;-70
2022/03/03 07:59:46;;;;;;;47.63;43.35;;;2.70;80.00;;;;;;5095674;28;20215;-71
2022/03/03 08:02:23;;;;;;;47.35;42.92;;;2.70;81.90;;;;;;5095790;28;20219;-71
2022/03/03 08:04:51;;;;;;;47.28;43.08;;;2.80;81.70;;;;;;5095535;28;20306;-71
2022/03/03 08:07:19;;;;;;;44.75;40.60;;;3.00;81.40;;;;;;5095519;28;20198;-71
2022/03/03 08:09:48;;;;;;;48.30;43.53;;;3.00;76.90;;;;;;5095229;28;20282;-71
2022/03/03 08:12:16;;;;;;;44.67;40.30;;;3.00;76.20;;;;;;5095444;28;20302;-71
2022/03/03 08:14:46;;;;;;;46.92;42.42;;;3.10;75.60;;;;;;5095313;28;20309;-71
2022/03/03 08:17:16;;;;;;;47.53;42.92;;;3.30;75.60;;;;;;5095272;28;20205;-71
2022/03/03 08:19:45;;;;;;;49.53;44.70;;;3.40;74.80;;;;;;5095095;28;20207;-71
2022/03/03 08:22:14;;;;;;;44.88;40.45;;;3.40;74.50;;;;;;5095327;28;20219;-71
2022/03/03 08:24:43;;;;;;;46.85;42.38;;;3.50;75.00;;;;;;5095272;28;20245;-71
2022/03/03 08:27:12;;;;;;;47.63;43.38;;;3.70;73.80;;;;;;5095140;28;20196;-71
2022/03/03 08:29:39;;;;;;;49.13;44.42;;;3.80;73.00;;;;;;5095018;28;20227;-71
2022/03/03 08:32:12;;;;;;;49.88;45.45;;;3.90;72.40;;;;;;5094851;28;20330;-71
2022/03/03 08:34:43;;;;;;;47.47;43.35;;;4.00;71.90;;;;;;5095137;28;20218;-71
2022/03/03 08:37:24;;;;;;;47.60;43.35;;;4.10;71.40;;;;;;5094831;28;20197;-71
2022/03/03 08:39:53;;;;;;;47.10;42.55;;;4.20;70.60;;;;;;5094890;28;20551;-71
2022/03/03 08:42:24;;;;;;;47.30;42.33;;;4.30;70.20;;;;;;5094524;28;20217;-71
2022/03/03 08:44:54;;;;;;;49.13;44.63;;;4.40;69.30;;;;;;5094844;28;20276;-71
2022/03/03 08:47:23;;;;;;;46.00;41.90;;;4.40;68.70;;;;;;5094908;28;20202;-71
2022/03/03 08:49:58;;;;;;;50.50;45.90;;;4.50;68.40;;;;;;5094735;28;20213;-71
2022/03/03 08:52:26;;;;;;;48.22;43.75;;;4.60;67.40;;;;;;5094833;28;20305;-71
2022/03/03 08:54:53;;;;;;;45.42;41.58;;;4.60;67.00;;;;;;5094804;28;20224;-71
2022/03/03 08:57:20;;;;;;;46.95;42.55;;;4.50;67.40;;;;;;5094797;28;20196;-71
2022/03/03 08:59:47;;;;;;;49.28;44.92;;;4.40;67.70;;;;;;5094273;28;20351;-71
2022/03/03 09:02:17;;;;;;;48.75;43.78;;;4.30;68.00;;;;;;5094648;28;20323;-71
2022/03/03 09:04:46;;;;;;;48.67;44.03;;;4.40;68.10;;;;;;5094758;28;20246;-71
2022/03/03 09:07:13;;;;;;;50.10;45.55;;;4.50;67.70;;;;;;5094410;28;20682;-71
2022/03/03 09:09:40;;;;;;;47.90;43.55;;;4.60;67.00;;;;;;5094402;28;20742;-71
2022/03/03 09:12:08;;;;;;;50.70;46.10;;;4.70;66.70;;;;;;5094335;28;20219;-71
2022/03/03 09:14:35;;;;;;;50.85;44.33;;;4.70;66.60;;;;;;5094341;28;20258;-71
2022/03/03 09:17:03;;;;;;;48.88;44.13;;;4.90;66.30;;;;;;5094221;28;20286;-71
2022/03/03 09:19:30;;;;;;;50.10;45.30;;;4.80;66.10;;;;;;5094131;28;20285;-71
2022/03/03 09:21:58;;;;;;;49.00;44.58;;;4.60;66.90;;;;;;5094128;28;20780;-71
2022/03/03 09:24:25;;;;;;;49.40;44.35;;;4.70;67.00;;;;;;5094150;28;20224;-71
2022/03/03 09:26:54;;;;;;;47.03;42.80;;;4.80;66.90;;;;;;5094218;28;20290;-71
2022/03/03 09:29:21;;;;;;;46.20;42.10;;;4.90;66.70;;;;;;5093918;28;20727;-71
2022/03/03 09:31:49;;;;;;;50.85;44.97;;;5.00;66.00;;;;;;5093890;28;20589;-71
2022/03/03 09:34:16;;;;;;;49.83;45.28;;;5.20;65.10;;;;;;5093785;28;20654;-71
2022/03/03 09:36:43;;;;;;;48.15;43.45;;;5.10;65.00;;;;;;5093706;28;20199;-71
2022/03/03 09:39:11;;;;;;;47.95;43.63;;;5.20;65.00;;;;;;5093705;28;20219;-71
2022/03/03 09:41:38;;;;;;;50.92;46.38;;;5.40;64.40;;;;;;5093706;28;20213;-71
2022/03/03 09:44:05;;;;;;;48.88;44.20;;;5.50;63.70;;;;;;5093005;28;20223;-71
2022/03/03 09:46:35;;;;;;;49.05;44.88;;;5.50;63.70;;;;;;5093552;28;20197;-71
2022/03/03 09:49:03;;;;;;;47.15;43.05;;;5.50;63.90;;;;;;5093636;28;20206;-71
2022/03/03 09:51:30;;;;;;;47.80;43.42;;;5.40;63.90;;;;;;5093366;28;20219;-71
2022/03/03 09:53:57;;;;;;;49.47;45.35;;;5.40;64.20;;;;;;5093617;28;20620;-71
2022/03/03 09:56:26;;;;;;;48.08;43.50;;;5.50;64.10;;;;;;5093569;28;20204;-71
2022/03/03 09:58:53;;;;;;;48.65;44.20;;;5.80;63.20;;;;;;5093515;28;20201;-71
2022/03/03 10:01:20;;;;;;;50.45;45.70;;;5.90;62.40;;;;;;5093030;28;20223;-71
2022/03/03 10:03:48;;;;;;;51.15;46.45;;;6.00;62.20;;;;;;5093421;28;20218;-71
2022/03/03 10:06:15;;;;;;;50.17;45.45;;;6.00;62.10;;;;;;5093341;28;20230;-71
2022/03/03 10:08:42;;;;;;;49.95;45.30;;;5.90;62.20;;;;;;5093248;28;20662;-71
2022/03/03 10:11:09;;;;;;;47.90;43.70;;;6.00;62.20;;;;;;5093034;28;20214;-71
2022/03/03 10:13:48;;;;;;;50.53;46.08;;;6.10;61.80;;;;;;5093030;28;20205;-71
2022/03/03 10:16:23;;;;;;;48.97;44.47;;;6.30;60.90;;;;;;5093224;28;20670;-71
2022/03/03 10:19:01;;;;;;;48.25;43.45;;;6.40;60.70;;;;;;5093118;28;20654;-71
2022/03/03 10:21:28;;;;;;;48.15;43.75;;;6.60;60.60;;;;;;5093224;28;20333;-72
2022/03/03 10:23:56;;;;;;;49.55;44.92;;;6.60;59.90;;;;;;5093127;28;20574;-71
2022/03/03 10:26:35;;;;;;;50.53;45.72;;;6.60;59.30;;;;;;5092929;28;20198;-71
2022/03/03 10:29:10;;;;;;;49.17;44.78;;;6.80;59.50;;;;;;5092781;28;20209;-71
2022/03/03 10:31:46;;;;;;;50.20;45.45;;;6.90;59.50;;;;;;5092854;28;20219;-71
2022/03/03 10:34:17;;;;;;;47.63;43.60;;;7.00;59.50;;;;;;5092805;28;20676;-71
2022/03/03 10:36:44;;;;;;;47.75;43.35;;;7.10;58.90;;;;;;5092801;28;20201;-71
2022/03/03 10:39:11;;;;;;;46.10;41.83;;;7.20;58.60;;;;;;5092712;28;20197;-71
2022/03/03 10:41:40;;;;;;;46.60;42.60;;;7.20;57.80;;;;;;5092666;28;20303;-71
2022/03/03 10:44:11;;;;;;;47.50;43.55;;;6.90;58.10;;;;;;5092644;28;20224;-72
2022/03/03 10:46:39;;;;;;;48.03;43.75;;;6.80;58.10;;;;;;5092969;28;20289;-71
2022/03/03 10:49:20;;;;;;;46.40;42.20;;;6.90;58.40;;;;;;5092471;28;20736;-71
2022/03/03 10:51:47;;;;;;;45.67;41.55;;;7.20;57.30;;;;;;5092622;28;20214;-71
2022/03/03 10:54:15;;;;;;;45.90;41.85;;;7.40;56.40;;;;;;5092296;28;20194;-71
2022/03/03 10:56:44;;;;;;;46.80;42.50;;;7.40;56.30;;;;;;5091798;28;20199;-71
2022/03/03 10:59:21;;;;;;;46.47;41.85;;;7.40;56.00;;;;;;5092100;28;20660;-71
2022/03/03 11:01:49;;;;;;;46.47;42.10;;;7.50;56.30;;;;;;5092514;28;20222;-72
2022/03/03 11:04:18;;;;;;;45.45;41.55;;;7.60;55.70;;;;;;5092559;28;20744;-72
2022/03/03 11:06:48;;;;;;;44.78;40.97;;;7.80;55.10;;;;;;5092544;28;20196;-72
2022/03/03 11:09:16;;;;;;;45.15;41.05;;;7.90;54.80;;;;;;5092425;28;20210;-71
2022/03/03 11:11:44;;;;;;;43.70;40.10;;;7.90;54.40;;;;;;5092378;28;20229;-72
2022/03/03 11:14:12;;;;;;;44.53;40.45;;;7.90;54.10;;;;;;5092485;28;20284;-71
2022/03/03 11:16:41;;;;;;;44.17;40.45;;;7.90;54.00;;;;;;5092267;28;20202;-72
2022/03/03 11:19:10;;;;;;;45.53;41.67;;;8.00;54.30;;;;;;5092253;28;20195;-71
2022/03/03 11:21:37;;;;;;;45.42;40.67;;;8.10;53.80;;;;;;5092440;28;20218;-71
2022/03/03 11:24:04;;;;;;;44.97;41.08;;;8.20;53.90;;;;;;5092219;28;20686;-71
2022/03/03 11:26:34;;;;;;;48.35;43.75;;;8.40;56.70;;;;;;5092210;28;20239;-72
2022/03/03 11:29:10;;;;;;;54.85;48.97;;;8.50;54.90;;;;;;5092445;28;20195;-72
2022/03/03 11:31:39;;;;;;;45.58;41.50;;;8.70;54.30;;;;;;5092363;28;20310;-71
2022/03/03 11:34:20;;;;;;;49.47;44.90;;;8.80;53.30;;;;;;5092116;28;20221;-72
2022/03/03 11:36:48;;;;;;;45.88;41.75;;;8.90;54.30;;;;;;5092043;28;20215;-71
2022/03/03 11:39:36;;;;;;;45.67;41.78;;;8.90;55.90;;;;;;5091960;28;20202;-72
2022/03/03 11:42:21;;;;;;;47.15;43.05;;;9.00;53.60;;;;;;5092132;28;20771;-72
2022/03/03 11:44:49;;;;;;;44.30;40.53;;;9.10;53.80;;;;;;5092037;28;20226;-72
2022/03/03 11:47:20;;;;;;;46.00;41.90;;;9.20;53.50;;;;;;5092137;28;20209;-72
2022/03/03 11:50:01;;;;;;;46.17;42.05;;;9.30;53.50;;;;;;5091880;28;20199;-72
2022/03/03 11:52:28;;;;;;;43.88;39.78;;;9.40;51.90;;;;;;5091990;28;20306;-71
2022/03/03 11:54:57;;;;;;;44.05;40.20;;;9.50;50.70;;;;;;5092043;28;20275;-72
2022/03/03 11:57:27;;;;;;;44.15;40.22;;;9.50;50.20;;;;;;5091980;28;20290;-71
2022/03/03 11:59:59;;;;;;;45.40;41.33;;;9.60;49.60;;;;;;5091890;28;20677;-71
2022/03/03 12:02:32;;;;;;;44.90;41.00;;;9.60;51.30;;;;;;5092178;28;20230;-71
2022/03/03 12:05:37;;;;;;;45.53;41.58;;;9.60;50.20;;;;;;5092046;28;20215;-71
2022/03/03 12:08:07;;;;;;;42.65;39.25;;;9.70;49.50;;;;;;5095184;28;20206;-71
2022/03/03 12:10:35;;;;;;;45.77;41.70;;;9.80;48.20;;;;;;5095245;28;20232;-72
2022/03/03 12:13:26;;;;;;;43.78;39.90;;;9.80;49.20;;;;;;5095612;28;20476;-72
2022/03/03 12:16:25;;;;;;;44.13;40.23;;;9.80;48.70;;;;;;5095599;28;20203;-72
2022/03/03 12:19:07;;;;;;;45.17;41.15;;;9.90;49.00;;;;;;5095329;28;20479;-72
2022/03/03 12:21:35;;;;;;;45.70;41.60;;;9.90;48.50;;;;;;5095383;28;20220;-72
2022/03/03 12:24:31;;;;;;;45.53;41.58;;;10.00;49.30;;;;;;5095348;28;20648;-72
2022/03/03 12:27:16;;;;;;;45.13;41.35;;;10.10;48.50;;;;;;5095264;28;20215;-72
2022/03/03 12:29:52;;;;;;;42.50;39.10;;;10.00;48.80;;;;;;5094916;28;20203;-72
2022/03/03 12:32:37;;;;;;;43.47;39.97;;;10.10;48.70;;;;;;5095090;28;20473;-72
2022/03/03 12:35:10;;;;;;;43.40;39.87;;;10.30;48.00;;;;;;5094932;28;20470;-72
2022/03/03 12:37:45;;;;;;;43.87;40.47;;;10.40;48.00;;;;;;5094892;28;20796;-72
2022/03/03 12:40:13;;;;;;;45.87;41.70;;;10.50;48.40;;;;;;5094976;28;20485;-72
2022/03/03 12:42:43;;;;;;;41.83;38.40;;;10.50;48.70;;;;;;5094902;28;20505;-72